createdAt,value
2022-10-28T00:00:51.998Z,101708.81
2022-10-28T00:03:20.092Z,101713.06
2022-10-28T00:05:47.814Z,101716.59
2022-10-28T00:08:15.499Z,101724.38
2022-10-28T00:10:43.136Z,101735.91
2022-10-28T00:13:12.409Z,101732.38
2022-10-28T00:15:40.014Z,101730.84
2022-10-28T00:18:07.607Z,101717.97
2022-10-28T00:20:35.252Z,101723.91
2022-10-28T00:23:02.860Z,101727.13
2022-10-28T00:25:30.573Z,101724.09
2022-10-28T00:27:58.170Z,101724.44
2022-10-28T00:30:27.186Z,101721.88
2022-10-28T00:32:55.031Z,101714.59
2022-10-28T00:35:22.752Z,101710.88
2022-10-28T00:37:54.336Z,101708.16
2022-10-28T00:40:22.498Z,101711.56
2022-10-28T00:42:50.294Z,101714.75
2022-10-28T00:45:18.301Z,101709.00
2022-10-28T00:47:55.457Z,101708.84
2022-10-28T00:50:40.569Z,101700.72
2022-10-28T00:53:12.172Z,101713.59
2022-10-28T00:55:39.980Z,101708.16
2022-10-28T00:58:09.653Z,101704.59
2022-10-28T01:00:37.320Z,101703.91
2022-10-28T01:03:08.242Z,101699.69
2022-10-28T01:05:39.209Z,101692.56
2022-10-28T01:08:07.380Z,101688.16
2022-10-28T01:10:55.492Z,101694.09
2022-10-28T01:13:35.296Z,101688.50
2022-10-28T01:16:08.425Z,101687.84
2022-10-28T01:18:45.626Z,101688.34
2022-10-28T01:21:47.695Z,101682.75
2022-10-28T01:24:27.105Z,101682.75
2022-10-28T01:27:16.824Z,101674.63
2022-10-28T01:30:13.940Z,101673.78
2022-10-28T01:33:06.951Z,101679.34
2022-10-28T01:35:42.891Z,101680.19
2022-10-28T01:38:20.952Z,101680.88
2022-10-28T01:40:56.104Z,101681.72
2022-10-28T01:43:29.429Z,101673.06
2022-10-28T01:46:01.811Z,101680.84
2022-10-28T01:51:13.561Z,101672.69
2022-10-28T01:53:44.437Z,101669.00
2022-10-28T01:56:17.339Z,101666.97
2022-10-28T01:58:46.172Z,101658.69
2022-10-28T02:01:15.294Z,101666.78
2022-10-28T02:03:46.726Z,101657.13
2022-10-28T02:06:17.947Z,101657.66
2022-10-28T02:08:58.623Z,101651.72
2022-10-28T02:12:04.420Z,101652.91
2022-10-28T02:14:56.374Z,101657.81
2022-10-28T02:17:32.703Z,101652.88
2022-10-28T02:20:10.286Z,101655.91
2022-10-28T02:22:47.043Z,101658.59
2022-10-28T02:25:20.714Z,101658.25
2022-10-28T02:27:55.308Z,101655.56
2022-10-28T02:30:26.521Z,101660.97
2022-10-28T02:32:58.569Z,101656.06
2022-10-28T02:35:32.725Z,101655.53
2022-10-28T02:38:04.825Z,101652.13
2022-10-28T02:40:35.239Z,101654.84
2022-10-28T02:43:06.718Z,101650.44
2022-10-28T02:45:40.603Z,101645.34
2022-10-28T02:48:11.501Z,101639.59
2022-10-28T02:50:47.606Z,101643.97
2022-10-28T02:53:19.237Z,101655.31
2022-10-28T02:55:52.059Z,101659.22
2022-10-28T02:58:19.928Z,101659.50
2022-10-28T03:00:49.615Z,101652.03
2022-10-28T03:03:17.414Z,101647.31
2022-10-28T03:05:46.627Z,101652.03
2022-10-28T03:08:14.254Z,101654.75
2022-10-28T03:10:41.886Z,101654.22
2022-10-28T03:13:09.515Z,101648.75
2022-10-28T03:15:37.118Z,101643.16
2022-10-28T03:18:04.885Z,101648.91
2022-10-28T03:20:32.531Z,101637.56
2022-10-28T03:23:01.519Z,101635.50
2022-10-28T03:25:29.192Z,101636.69
2022-10-28T03:27:56.917Z,101639.56
2022-10-28T03:30:24.591Z,101636.00
2022-10-28T03:32:52.505Z,101637.47
2022-10-28T03:35:20.435Z,101644.25
2022-10-28T03:37:48.054Z,101644.44
2022-10-28T03:40:17.290Z,101657.28
2022-10-28T03:42:45.638Z,101652.22
2022-10-28T03:45:13.281Z,101647.50
2022-10-28T03:47:41.143Z,101654.72
2022-10-28T03:50:09.652Z,101652.31
2022-10-28T03:52:37.317Z,101653.28
2022-10-28T03:55:05.696Z,101647.72
2022-10-28T03:57:35.097Z,101650.09
2022-10-28T04:00:02.956Z,101638.91
2022-10-28T04:02:30.588Z,101638.59
2022-10-28T04:04:58.298Z,101645.50
2022-10-28T04:07:26.020Z,101635.16
2022-10-28T04:09:53.612Z,101638.00
2022-10-28T04:12:21.232Z,101643.78
2022-10-28T04:14:50.354Z,101645.19
2022-10-28T04:17:17.956Z,101654.06
2022-10-28T04:19:45.614Z,101647.44
2022-10-28T04:22:13.214Z,101650.47
2022-10-28T04:24:40.809Z,101634.78
2022-10-28T04:27:08.607Z,101632.66
2022-10-28T04:29:36.223Z,101637.28
2022-10-28T04:32:05.210Z,101633.19
2022-10-28T04:34:32.841Z,101629.75
2022-10-28T04:37:00.633Z,101625.34
2022-10-28T04:39:28.243Z,101636.16
2022-10-28T04:41:55.846Z,101634.09
2022-10-28T04:44:23.488Z,101634.78
2022-10-28T04:46:51.061Z,101629.38
2022-10-28T04:49:20.061Z,101623.56
2022-10-28T04:54:20.344Z,101622.22
2022-10-28T04:56:48.003Z,101633.19
2022-10-28T04:59:15.625Z,101633.72
2022-10-28T05:01:43.361Z,101624.63
2022-10-28T05:04:11.118Z,101620.19
2022-10-28T05:06:40.772Z,101625.72
2022-10-28T05:09:08.378Z,101628.25
2022-10-28T05:11:36.069Z,101617.28
2022-10-28T05:14:03.721Z,101617.13
2022-10-28T05:16:31.593Z,101618.00
2022-10-28T05:18:59.811Z,101612.94
2022-10-28T05:21:27.798Z,101602.47
2022-10-28T05:23:56.807Z,101600.81
2022-10-28T05:26:24.418Z,101600.66
2022-10-28T05:28:52.308Z,101604.06
2022-10-28T05:31:20.095Z,101595.47
2022-10-28T05:33:47.752Z,101598.00
2022-10-28T05:36:15.379Z,101606.16
2022-10-28T05:38:45.403Z,101607.84
2022-10-28T05:41:14.489Z,101617.16
2022-10-28T05:43:42.146Z,101616.34
2022-10-28T05:46:10.698Z,101602.13
2022-10-28T05:48:38.320Z,101596.38
2022-10-28T05:51:06.149Z,101595.22
2022-10-28T05:53:33.934Z,101589.81
2022-10-28T05:56:01.567Z,101583.06
2022-10-28T05:58:30.540Z,101593.41
2022-10-28T06:00:58.311Z,101593.94
2022-10-28T06:03:30.113Z,101590.72
2022-10-28T06:05:59.609Z,101583.31
2022-10-28T06:08:27.706Z,101583.13
2022-10-28T06:10:54.725Z,101563.31
2022-10-28T06:13:22.507Z,101570.25
2022-10-28T06:15:52.565Z,101573.63
2022-10-28T06:18:20.418Z,101575.16
2022-10-28T06:20:52.244Z,101576.84
2022-10-28T06:23:19.933Z,101572.28
2022-10-28T06:25:47.769Z,101565.06
2022-10-28T06:28:15.657Z,101567.75
2022-10-28T06:30:43.317Z,101575.03
2022-10-28T06:33:12.377Z,101572.81
2022-10-28T06:35:40.013Z,101571.47
2022-10-28T06:38:09.599Z,101567.75
2022-10-28T06:40:37.480Z,101568.06
2022-10-28T06:43:07.445Z,101564.19
2022-10-28T06:45:35.118Z,101564.03
2022-10-28T06:48:06.442Z,101572.53
2022-10-28T06:50:35.917Z,101589.13
2022-10-28T06:53:04.018Z,101588.78
2022-10-28T06:55:32.259Z,101585.72
2022-10-28T06:58:01.012Z,101576.63
2022-10-28T07:03:02.670Z,101588.66
2022-10-28T07:05:30.580Z,101604.41
2022-10-28T07:07:59.630Z,101595.25
2022-10-28T07:10:27.341Z,101605.44
2022-10-28T07:12:55.219Z,101595.00
2022-10-28T07:15:23.350Z,101585.03
2022-10-28T07:17:53.708Z,101588.75
2022-10-28T07:20:21.773Z,101586.91
2022-10-28T07:22:49.479Z,101592.47
2022-10-28T07:25:18.622Z,101588.59
2022-10-28T07:27:46.430Z,101595.38
2022-10-28T07:30:14.536Z,101608.41
2022-10-28T07:32:42.246Z,101611.63
2022-10-28T07:35:10.291Z,101621.91
2022-10-28T07:37:39.419Z,101602.63
2022-10-28T07:40:08.169Z,101605.75
2022-10-28T07:42:37.241Z,101604.31
2022-10-28T07:45:06.111Z,101619.44
2022-10-28T07:47:48.349Z,101611.09
2022-10-28T07:50:19.810Z,101607.25
2022-10-28T07:52:48.158Z,101610.66
2022-10-28T07:55:15.847Z,101597.91
2022-10-28T07:57:45.876Z,101588.44
2022-10-28T08:00:14.049Z,101599.63
2022-10-28T08:02:42.050Z,101599.13
2022-10-28T08:05:10.433Z,101611.59
2022-10-28T08:07:38.922Z,101613.31
2022-10-28T08:10:07.887Z,101607.56
2022-10-28T08:12:35.543Z,101615.34
2022-10-28T08:15:05.561Z,101613.47
2022-10-28T08:17:33.264Z,101610.94
2022-10-28T08:20:00.919Z,101606.34
2022-10-28T08:22:28.578Z,101600.72
2022-10-28T08:24:56.241Z,101607.59
2022-10-28T08:27:23.974Z,101624.38
2022-10-28T08:29:53.351Z,101639.72
2022-10-28T08:32:22.590Z,101637.44
2022-10-28T08:34:50.233Z,101632.75
2022-10-28T08:37:17.972Z,101641.56
2022-10-28T08:39:45.662Z,101639.91
2022-10-28T08:42:34.969Z,101631.13
2022-10-28T08:45:23.612Z,101619.31
2022-10-28T08:48:13.212Z,101624.09
2022-10-28T08:50:47.682Z,101622.94
2022-10-28T08:53:20.080Z,101618.50
2022-10-28T08:55:51.946Z,101624.72
2022-10-28T08:58:24.926Z,101623.50
2022-10-28T09:00:55.041Z,101622.34
2022-10-28T09:03:26.855Z,101629.41
2022-10-28T09:06:03.074Z,101618.59
2022-10-28T09:08:36.223Z,101614.63
2022-10-28T09:11:37.447Z,101607.81
2022-10-28T09:14:16.335Z,101599.25
2022-10-28T09:16:48.201Z,101594.63
2022-10-28T09:19:28.917Z,101592.19
2022-10-28T09:22:15.295Z,101590.22
2022-10-28T09:24:52.808Z,101588.13
2022-10-28T09:27:33.948Z,101583.56
2022-10-28T09:30:20.466Z,101582.09
2022-10-28T09:32:57.036Z,101578.50
2022-10-28T09:35:29.702Z,101576.50
2022-10-28T09:38:12.968Z,101584.91
2022-10-28T09:40:44.889Z,101581.06
2022-10-28T09:43:26.293Z,101590.47
2022-10-28T09:46:00.149Z,101581.09
2022-10-28T09:48:30.666Z,101587.56
2022-10-28T09:51:00.288Z,101576.25
2022-10-28T09:53:37.292Z,101582.97
2022-10-28T09:56:06.396Z,101561.41
2022-10-28T09:58:35.401Z,101557.13
2022-10-28T10:01:04.848Z,101560.50
2022-10-28T10:03:32.914Z,101553.78
2022-10-28T10:06:10.766Z,101552.91
2022-10-28T10:08:40.299Z,101542.19
2022-10-28T10:11:14.760Z,101552.34
2022-10-28T10:13:44.870Z,101550.91
2022-10-28T10:16:18.545Z,101553.44
2022-10-28T10:18:51.008Z,101557.28
2022-10-28T10:21:43.982Z,101552.63
2022-10-28T10:24:32.605Z,101543.44
2022-10-28T10:27:03.201Z,101538.59
2022-10-28T10:29:32.291Z,101532.91
2022-10-28T10:32:17.734Z,101530.41
2022-10-28T10:34:49.797Z,101530.41
2022-10-28T10:37:21.900Z,101534.00
2022-10-28T10:40:02.476Z,101527.47
2022-10-28T10:42:30.141Z,101526.00
2022-10-28T10:45:01.549Z,101529.59
2022-10-28T10:47:29.763Z,101521.19
2022-10-28T10:50:20.465Z,101525.38
2022-10-28T10:52:56.642Z,101515.50
2022-10-28T10:55:33.372Z,101517.63
2022-10-28T10:58:02.469Z,101508.53
2022-10-28T11:00:36.638Z,101503.44
2022-10-28T11:03:07.793Z,101494.19
2022-10-28T11:05:38.103Z,101502.38
2022-10-28T11:08:25.432Z,101497.53
2022-10-28T11:11:05.506Z,101499.16
2022-10-28T11:13:34.998Z,101501.28
2022-10-28T11:16:04.076Z,101498.91
2022-10-28T11:18:41.891Z,101500.56
2022-10-28T11:21:19.977Z,101500.34
2022-10-28T11:23:59.679Z,101501.63
2022-10-28T11:26:28.178Z,101495.66
2022-10-28T11:29:08.566Z,101498.38
2022-10-28T11:32:02.584Z,101496.91
2022-10-28T11:34:46.416Z,101482.47
2022-10-28T11:37:21.867Z,101473.56
2022-10-28T11:40:05.733Z,101479.00
2022-10-28T11:42:42.660Z,101479.00
2022-10-28T11:45:19.686Z,101475.00
2022-10-28T11:48:08.505Z,101474.72
2022-10-28T11:50:48.097Z,101481.06
2022-10-28T11:53:39.666Z,101471.06
2022-10-28T11:56:18.543Z,101479.09
2022-10-28T11:58:57.364Z,101482.50
2022-10-28T12:01:42.191Z,101483.22
2022-10-28T12:04:26.493Z,101477.06
2022-10-28T12:07:12.324Z,101470.13
2022-10-28T12:09:56.677Z,101470.47
2022-10-28T12:12:32.157Z,101482.34
2022-10-28T12:15:12.348Z,101475.19
2022-10-28T12:17:48.458Z,101475.19
2022-10-28T12:20:24.449Z,101480.22
2022-10-28T12:22:55.547Z,101471.34
2022-10-28T12:25:26.830Z,101468.91
2022-10-28T12:27:59.927Z,101455.28
2022-10-28T12:30:30.315Z,101462.22
2022-10-28T12:33:02.332Z,101450.69
2022-10-28T12:35:34.003Z,101456.56
2022-10-28T12:38:09.184Z,101453.69
2022-10-28T12:40:42.685Z,101445.75
2022-10-28T12:43:16.759Z,101448.63
2022-10-28T12:45:45.108Z,101447.59
2022-10-28T12:48:20.655Z,101441.09
2022-10-28T12:50:53.728Z,101446.34
2022-10-28T12:53:33.560Z,101441.31
2022-10-28T12:56:03.239Z,101436.22
2022-10-28T12:58:34.110Z,101423.16
2022-10-28T13:01:05.709Z,101435.38
2022-10-28T13:03:33.380Z,101432.25
2022-10-28T13:06:26.729Z,101429.41
2022-10-28T13:09:14.011Z,101422.25
2022-10-28T13:11:59.878Z,101426.31
2022-10-28T13:14:53.347Z,101425.63
2022-10-28T13:17:34.515Z,101426.28
2022-10-28T13:20:13.920Z,101410.28
2022-10-28T13:22:58.140Z,101408.38
2022-10-28T13:25:52.409Z,101402.28
2022-10-28T13:28:22.056Z,101393.44
2022-10-28T13:31:00.428Z,101400.44
2022-10-28T13:33:30.201Z,101394.19
2022-10-28T13:36:09.212Z,101392.50
2022-10-28T13:38:37.617Z,101390.75
2022-10-28T13:41:28.214Z,101391.97
2022-10-28T13:44:14.980Z,101387.56
2022-10-28T13:47:16.170Z,101379.38
2022-10-28T13:50:32.945Z,101379.94
2022-10-28T13:53:43.651Z,101381.59
2022-10-28T13:56:39.714Z,101389.28
2022-10-28T13:59:19.621Z,101393.34
2022-10-28T14:02:01.893Z,101392.50
2022-10-28T14:04:39.306Z,101393.72
2022-10-28T14:07:26.716Z,101390.44
2022-10-28T14:09:58.641Z,101392.72
2022-10-28T14:12:29.589Z,101388.47
2022-10-28T14:15:01.699Z,101391.22
2022-10-28T14:17:35.706Z,101392.72
2022-10-28T14:20:06.617Z,101394.25
2022-10-28T14:22:37.701Z,101384.63
2022-10-28T14:25:44.520Z,101391.56
2022-10-28T14:28:45.796Z,101382.56
2022-10-28T14:31:35.320Z,101388.28
2022-10-28T14:34:42.515Z,101381.63
2022-10-28T14:38:02.512Z,101382.94
2022-10-28T14:40:35.950Z,101386.03
2022-10-28T14:43:36.993Z,101383.34
2022-10-28T14:46:18.443Z,101388.47
2022-10-28T14:48:50.546Z,101377.63
2022-10-28T14:51:21.603Z,101386.50
2022-10-28T14:53:54.940Z,101379.41
2022-10-28T14:56:26.149Z,101376.09
2022-10-28T14:58:56.199Z,101373.63
2022-10-28T15:01:28.710Z,101373.44
2022-10-28T15:04:00.143Z,101369.69
2022-10-28T15:06:38.965Z,101375.03
2022-10-28T15:09:20.656Z,101378.88
2022-10-28T15:11:51.478Z,101369.84
2022-10-28T15:14:28.185Z,101366.91
2022-10-28T15:16:56.619Z,101369.25
2022-10-28T15:19:26.290Z,101369.84
2022-10-28T15:22:19.840Z,101363.53
2022-10-28T15:24:56.778Z,101369.06
2022-10-28T15:27:25.791Z,101371.38
2022-10-28T15:29:53.781Z,101363.84
2022-10-28T15:32:33.170Z,101364.06
2022-10-28T15:35:21.220Z,101364.50
2022-10-28T15:37:48.900Z,101362.38
2022-10-28T15:40:30.760Z,101361.38
2022-10-28T15:43:00.011Z,101370.16
2022-10-28T15:45:30.453Z,101370.41
2022-10-28T15:47:59.233Z,101363.41
2022-10-28T15:50:30.238Z,101358.41
2022-10-28T15:53:31.431Z,101358.38
2022-10-28T15:56:22.965Z,101357.31
2022-10-28T15:59:04.377Z,101359.63
2022-10-28T16:01:38.785Z,101361.28
2022-10-28T16:04:07.649Z,101361.28
2022-10-28T16:06:37.871Z,101361.72
2022-10-28T16:09:14.229Z,101357.31
2022-10-28T16:11:46.226Z,101356.25
2022-10-28T16:14:35.279Z,101361.91
2022-10-28T16:17:10.397Z,101361.28
2022-10-28T16:19:40.943Z,101360.84
2022-10-28T16:22:13.302Z,101363.59
2022-10-28T16:24:41.176Z,101363.59
2022-10-28T16:27:19.536Z,101357.47
2022-10-28T16:29:47.409Z,101361.25
2022-10-28T16:32:16.259Z,101358.34
2022-10-28T16:34:44.192Z,101370.13
2022-10-28T16:37:21.793Z,101362.13
2022-10-28T16:39:49.680Z,101366.06
2022-10-28T16:42:20.160Z,101367.94
2022-10-28T16:44:47.822Z,101355.50
2022-10-28T16:47:16.990Z,101363.81
2022-10-28T16:49:45.241Z,101362.50
2022-10-28T16:52:16.365Z,101365.19
2022-10-28T16:54:44.014Z,101357.25
2022-10-28T16:57:11.644Z,101364.19
2022-10-28T16:59:40.654Z,101361.25
2022-10-28T17:02:16.561Z,101357.19
2022-10-28T17:04:44.294Z,101365.81
2022-10-28T17:07:16.182Z,101351.50
2022-10-28T17:09:43.900Z,101349.19
2022-10-28T17:12:14.209Z,101358.28
2022-10-28T17:14:43.162Z,101363.25
2022-10-28T17:17:11.324Z,101357.81
2022-10-28T17:19:39.271Z,101356.78
2022-10-28T17:22:09.342Z,101372.00
2022-10-28T17:24:37.946Z,101367.28
2022-10-28T17:27:07.306Z,101371.13
2022-10-28T17:29:35.206Z,101369.41
2022-10-28T17:32:04.651Z,101364.13
2022-10-28T17:34:32.524Z,101368.25
2022-10-28T17:37:00.154Z,101368.22
2022-10-28T17:39:27.815Z,101368.19
2022-10-28T17:41:55.443Z,101365.94
2022-10-28T17:44:23.312Z,101364.44
2022-10-28T17:46:51.658Z,101367.72
2022-10-28T17:49:20.998Z,101368.31
2022-10-28T17:51:48.614Z,101363.34
2022-10-28T17:54:16.326Z,101369.19
2022-10-28T17:56:45.273Z,101366.72
2022-10-28T17:59:12.897Z,101370.19
2022-10-28T18:01:40.672Z,101367.88
2022-10-28T18:04:08.451Z,101366.56
2022-10-28T18:06:37.460Z,101362.38
2022-10-28T18:09:05.303Z,101367.63
2022-10-28T18:11:35.316Z,101365.88
2022-10-28T18:14:05.261Z,101364.78
2022-10-28T18:16:33.672Z,101373.31
2022-10-28T18:19:05.283Z,101369.97
2022-10-28T18:21:33.373Z,101366.19
2022-10-28T18:24:04.552Z,101365.75
2022-10-28T18:26:33.059Z,101367.38
2022-10-28T18:29:03.820Z,101367.94
2022-10-28T18:31:33.004Z,101360.75
2022-10-28T18:34:01.352Z,101360.84
2022-10-28T18:36:30.699Z,101365.88
2022-10-28T18:38:58.584Z,101372.25
2022-10-28T18:41:29.017Z,101369.25
2022-10-28T18:43:57.947Z,101368.41
2022-10-28T18:46:26.542Z,101360.75
2022-10-28T18:48:54.520Z,101364.91
2022-10-28T18:51:22.193Z,101363.22
2022-10-28T18:53:50.226Z,101363.47
2022-10-28T18:56:19.793Z,101350.66
2022-10-28T18:58:51.477Z,101357.91
2022-10-28T19:01:21.292Z,101350.97
2022-10-28T19:03:52.733Z,101362.22
2022-10-28T19:06:24.488Z,101360.09
2022-10-28T19:08:53.483Z,101366.00
2022-10-28T19:11:22.470Z,101359.50
2022-10-28T19:13:51.448Z,101360.34
2022-10-28T19:16:19.102Z,101357.69
2022-10-28T19:18:46.815Z,101361.47
2022-10-28T19:21:16.257Z,101360.75
2022-10-28T19:23:44.991Z,101352.22
2022-10-28T19:26:13.682Z,101362.38
2022-10-28T19:28:42.603Z,101354.41
2022-10-28T19:31:13.901Z,101352.72
2022-10-28T19:33:43.330Z,101356.47
2022-10-28T19:36:14.389Z,101364.19
2022-10-28T19:38:42.058Z,101368.97
2022-10-28T19:41:11.511Z,101368.44
2022-10-28T19:43:39.566Z,101375.28
2022-10-28T19:46:10.211Z,101379.59
2022-10-28T19:48:40.362Z,101376.34
2022-10-28T19:51:09.253Z,101384.75
2022-10-28T19:53:36.929Z,101381.91
2022-10-28T19:56:05.454Z,101380.44
2022-10-28T19:58:33.609Z,101382.50
2022-10-28T20:01:03.413Z,101396.03
2022-10-28T20:03:34.468Z,101395.72
2022-10-28T20:06:06.856Z,101393.50
2022-10-28T20:08:36.369Z,101394.22
2022-10-28T20:11:06.057Z,101400.06
2022-10-28T20:13:34.370Z,101396.00
2022-10-28T20:16:03.998Z,101401.44
2022-10-28T20:18:32.305Z,101399.78
2022-10-28T20:21:13.615Z,101411.97
2022-10-28T20:23:41.516Z,101412.44
2022-10-28T20:26:10.195Z,101421.31
2022-10-28T20:28:38.363Z,101413.19
2022-10-28T20:31:08.443Z,101407.66
2022-10-28T20:33:37.706Z,101406.47
2022-10-28T20:36:07.253Z,101404.28
2022-10-28T20:38:36.250Z,101412.16
2022-10-28T20:41:03.872Z,101410.28
2022-10-28T20:43:31.490Z,101417.88
2022-10-28T20:46:00.457Z,101412.44
2022-10-28T20:48:29.203Z,101417.69
2022-10-28T20:50:58.419Z,101413.81
2022-10-28T20:53:27.600Z,101410.09
2022-10-28T20:55:58.228Z,101415.53
2022-10-28T20:58:29.047Z,101411.38
2022-10-28T21:01:03.286Z,101419.47
2022-10-28T21:03:30.978Z,101414.50
2022-10-28T21:05:58.684Z,101418.06
2022-10-28T21:08:26.383Z,101416.63
2022-10-28T21:10:54.037Z,101418.00
2022-10-28T21:13:23.007Z,101422.22
2022-10-28T21:15:56.332Z,101414.31
2022-10-28T21:18:25.930Z,101430.72
2022-10-28T21:20:56.956Z,101424.28
2022-10-28T21:23:24.973Z,101423.03
2022-10-28T21:25:55.829Z,101427.00
2022-10-28T21:28:24.882Z,101417.69
2022-10-28T21:30:52.479Z,101421.56
2022-10-28T21:33:20.102Z,101420.91
2022-10-28T21:35:56.628Z,101416.31
2022-10-28T21:38:24.602Z,101419.25
2022-10-28T21:41:00.110Z,101418.00
2022-10-28T21:43:30.827Z,101421.38
2022-10-28T21:45:58.657Z,101418.19
2022-10-28T21:48:27.393Z,101427.59
2022-10-28T21:50:56.987Z,101415.06
2022-10-28T21:53:25.699Z,101419.25
2022-10-28T21:55:55.488Z,101412.88
2022-10-28T21:58:23.285Z,101411.44
2022-10-28T22:00:52.267Z,101418.31
2022-10-28T22:03:19.928Z,101419.06
2022-10-28T22:05:51.500Z,101426.22
2022-10-28T22:08:19.156Z,101427.50
2022-10-28T22:10:46.825Z,101424.53
2022-10-28T22:13:14.463Z,101420.91
2022-10-28T22:15:42.146Z,101422.91
2022-10-28T22:18:11.130Z,101427.88
2022-10-28T22:20:38.754Z,101431.56
2022-10-28T22:23:06.370Z,101426.03
2022-10-28T22:25:34.051Z,101426.31
2022-10-28T22:28:01.664Z,101431.50
2022-10-28T22:30:29.248Z,101433.97
2022-10-28T22:32:57.239Z,101433.50
2022-10-28T22:35:26.442Z,101430.63
2022-10-28T22:37:54.221Z,101438.50
2022-10-28T22:40:22.040Z,101440.19
2022-10-28T22:42:49.692Z,101442.44
2022-10-28T22:45:17.914Z,101447.28
2022-10-28T22:47:45.574Z,101436.81
2022-10-28T22:50:13.228Z,101439.53
2022-10-28T22:52:42.178Z,101443.03
2022-10-28T22:55:10.696Z,101458.94
2022-10-28T22:57:38.356Z,101461.88
2022-10-28T23:00:07.090Z,101459.16
2022-10-28T23:02:34.892Z,101465.72
2022-10-28T23:05:02.588Z,101461.69
2022-10-28T23:07:30.237Z,101467.78
2022-10-28T23:10:00.476Z,101485.13
2022-10-28T23:12:28.077Z,101480.22
2022-10-28T23:14:55.910Z,101476.22
2022-10-28T23:17:23.475Z,101472.56
2022-10-28T23:19:51.054Z,101456.03
2022-10-28T23:22:18.648Z,101466.00
2022-10-28T23:24:46.277Z,101472.53
2022-10-28T23:27:15.231Z,101470.78
2022-10-28T23:29:42.902Z,101471.22
2022-10-28T23:32:10.895Z,101489.03
2022-10-28T23:34:38.501Z,101479.09
2022-10-28T23:37:06.152Z,101479.59
2022-10-28T23:39:33.769Z,101475.34
2022-10-28T23:42:01.398Z,101479.41
2022-10-28T23:44:30.419Z,101469.53
2022-10-28T23:46:58.072Z,101474.63
2022-10-28T23:49:25.668Z,101466.66
2022-10-28T23:51:53.329Z,101469.19
2022-10-28T23:54:21.031Z,101479.69
2022-10-28T23:56:48.622Z,101486.47
2022-10-28T23:59:16.333Z,101493.66
